createdAt,value
2023-04-13T00:04:01.995Z,4.32
2023-04-13T00:09:03.555Z,1.95
2023-04-13T00:14:04.976Z,1.77
2023-04-13T00:19:06.421Z,3.50
2023-04-13T00:24:07.938Z,3.05
2023-04-13T00:29:09.369Z,2.75
2023-04-13T00:34:12.081Z,4.72
2023-04-13T00:39:13.496Z,3.60
2023-04-13T00:44:14.800Z,1.88
2023-04-13T00:49:17.517Z,2.78
2023-04-13T00:54:19.192Z,2.63
2023-04-13T00:59:20.591Z,4.65
2023-04-13T01:04:25.230Z,3.67
2023-04-13T01:09:41.087Z,4.22
2023-04-13T01:14:49.740Z,2.10
2023-04-13T01:19:54.527Z,3.10
2023-04-13T01:25:17.824Z,2.33
2023-04-13T01:30:19.872Z,4.22
2023-04-13T01:35:22.034Z,2.97
2023-04-13T01:40:25.322Z,5.93
2023-04-13T01:45:33.449Z,5.22
2023-04-13T01:50:36.228Z,2.17
2023-04-13T01:55:40.668Z,2.70
2023-04-13T02:00:45.398Z,5.25
2023-04-13T02:05:46.727Z,2.03
2023-04-13T02:10:48.689Z,6.90
2023-04-13T02:15:50.239Z,1.42
2023-04-13T02:21:01.653Z,1.98
2023-04-13T02:26:02.917Z,1.48
2023-04-13T02:31:06.142Z,3.28
2023-04-13T02:36:07.701Z,1.77
2023-04-13T02:41:09.203Z,2.55
2023-04-13T02:46:10.893Z,1.70
2023-04-13T02:51:12.329Z,7.05
2023-04-13T02:56:13.626Z,6.03
2023-04-13T03:01:15.110Z,2.17
2023-04-13T03:06:16.658Z,2.05
2023-04-13T03:11:18.366Z,2.00
2023-04-13T03:16:20.198Z,0.98
2023-04-13T03:21:21.576Z,4.22
2023-04-13T03:26:23.205Z,1.33
2023-04-13T03:31:24.626Z,2.50
2023-04-13T03:36:26.673Z,2.45
2023-04-13T03:41:28.040Z,4.53
2023-04-13T03:46:29.453Z,3.08
2023-04-13T03:51:30.818Z,4.15
2023-04-13T03:56:32.661Z,2.42
2023-04-13T04:01:33.984Z,3.45
2023-04-13T04:06:35.298Z,3.90
2023-04-13T04:11:37.097Z,5.50
2023-04-13T04:16:38.826Z,2.22
2023-04-13T04:21:40.156Z,5.65
2023-04-13T04:26:41.563Z,4.85
2023-04-13T04:31:43.717Z,1.25
2023-04-13T04:36:45.323Z,6.70
2023-04-13T04:41:46.753Z,2.00
2023-04-13T04:46:48.087Z,2.75
2023-04-13T04:51:49.626Z,2.95
2023-04-13T04:56:51.576Z,3.35
2023-04-13T05:01:53.081Z,3.20
2023-04-13T05:06:54.439Z,2.15
2023-04-13T05:11:55.719Z,1.65
2023-04-13T05:16:57.125Z,1.95
2023-04-13T05:21:59.458Z,3.17
2023-04-13T05:27:00.740Z,4.72
2023-04-13T05:32:02.365Z,4.00
2023-04-13T05:37:03.985Z,0.68
2023-04-13T05:42:05.316Z,1.40
2023-04-13T05:47:06.777Z,1.15
2023-04-13T05:52:11.503Z,1.35
2023-04-13T05:57:12.871Z,1.48
2023-04-13T06:02:14.360Z,2.42
2023-04-13T06:07:17.040Z,2.05
2023-04-13T06:12:18.625Z,6.00
2023-04-13T06:17:19.954Z,2.22
2023-04-13T06:22:21.416Z,2.58
2023-04-13T06:27:22.877Z,3.55
2023-04-13T06:32:24.187Z,1.73
2023-04-13T06:47:28.843Z,2.63
2023-04-13T06:52:30.105Z,2.33
2023-04-13T06:57:31.506Z,2.58
2023-04-13T07:02:33.213Z,1.60
2023-04-13T07:07:34.724Z,3.03
2023-04-13T07:12:36.073Z,3.40
2023-04-13T07:17:37.525Z,4.35
2023-04-13T07:22:38.946Z,2.30
2023-04-13T07:27:40.382Z,3.50
2023-04-13T07:32:41.711Z,1.83
2023-04-13T07:37:43.091Z,1.88
2023-04-13T07:42:44.550Z,3.17
2023-04-13T07:47:46.482Z,0.90
2023-04-13T07:52:47.792Z,3.50
2023-04-13T07:57:49.210Z,1.88
2023-04-13T08:02:50.762Z,3.30
2023-04-13T08:07:52.195Z,3.47
2023-04-13T08:12:53.531Z,4.03
2023-04-13T08:17:55.033Z,2.58
2023-04-13T08:22:56.370Z,3.58
2023-04-13T08:32:59.635Z,6.57
2023-04-13T08:38:02.617Z,6.03
2023-04-13T08:43:03.926Z,5.55
2023-04-13T08:48:07.987Z,6.55
2023-04-13T08:53:12.511Z,4.45
2023-04-13T08:58:17.572Z,9.15
2023-04-13T09:03:20.692Z,9.40
2023-04-13T09:08:22.911Z,10.25
2023-04-13T09:13:24.393Z,9.50
2023-04-13T09:18:25.758Z,9.55
2023-04-13T09:23:27.160Z,10.10
2023-04-13T09:28:28.655Z,8.40
2023-04-13T09:33:35.283Z,9.25
2023-04-13T09:38:36.678Z,10.27
2023-04-13T09:43:38.581Z,9.00
2023-04-13T09:48:40.281Z,9.77
2023-04-13T09:53:47.658Z,9.20
2023-04-13T09:58:49.156Z,11.13
2023-04-13T10:03:50.594Z,9.25
2023-04-13T10:08:52.087Z,8.95
2023-04-13T10:13:58.492Z,11.73
2023-04-13T10:19:01.224Z,9.80
2023-04-13T10:24:11.314Z,6.15
2023-04-13T10:29:13.326Z,9.00
2023-04-13T10:34:24.803Z,9.63
2023-04-13T10:39:27.002Z,9.00
2023-04-13T10:44:29.681Z,6.68
2023-04-13T10:49:31.823Z,9.30
2023-04-13T10:54:34.934Z,8.10
2023-04-13T10:59:55.641Z,9.70
2023-04-13T11:04:58.919Z,8.43
2023-04-13T11:10:03.760Z,8.98
2023-04-13T11:20:45.496Z,9.50
2023-04-13T11:41:47.315Z,7.78
2023-04-13T11:46:50.775Z,11.43
2023-04-13T12:22:57.671Z,5.72
2023-04-13T12:28:10.587Z,12.10
2023-04-13T12:48:27.616Z,13.73
2023-04-13T12:53:28.955Z,8.10
2023-04-13T12:58:30.486Z,7.72
2023-04-13T13:23:51.562Z,6.88
2023-04-13T13:28:53.374Z,5.72
2023-04-13T13:38:56.668Z,7.15
2023-04-13T13:43:59.117Z,7.00
2023-04-13T13:49:00.643Z,4.78
2023-04-13T13:54:02.132Z,6.53
2023-04-13T13:59:03.548Z,7.05
2023-04-13T14:04:05.232Z,6.20
2023-04-13T14:09:06.666Z,6.35
2023-04-13T14:34:31.941Z,8.18
2023-04-13T14:39:33.452Z,5.97
2023-04-13T14:44:34.767Z,5.80
2023-04-13T14:49:38.307Z,6.28
2023-04-13T15:35:06.092Z,7.88
2023-04-13T15:40:07.911Z,7.80
2023-04-13T15:45:10.022Z,5.07
2023-04-13T15:50:11.627Z,8.70
2023-04-13T15:55:13.143Z,5.00
2023-04-13T16:05:55.768Z,8.43
2023-04-13T16:10:57.479Z,7.13
2023-04-13T16:15:59.133Z,6.18
2023-04-13T16:21:05.084Z,5.63
2023-04-13T16:31:37.876Z,6.50
2023-04-13T16:36:39.642Z,4.40
2023-04-13T16:47:21.899Z,8.45
2023-04-13T16:52:23.522Z,5.40
2023-04-13T16:57:28.827Z,7.18
2023-04-13T17:02:37.252Z,7.30
2023-04-13T17:07:39.501Z,6.43
2023-04-13T17:12:41.031Z,7.15
2023-04-13T17:17:51.610Z,7.93
2023-04-13T17:22:55.652Z,5.13
2023-04-13T17:27:57.448Z,7.70
2023-04-13T17:32:59.101Z,4.90
2023-04-13T17:38:00.717Z,5.80
2023-04-13T17:43:02.213Z,6.25
2023-04-13T17:48:12.139Z,5.97
2023-04-13T17:58:15.342Z,5.63
2023-04-13T18:03:16.961Z,4.05
2023-04-13T18:08:21.349Z,8.13
2023-04-13T18:13:25.208Z,8.02
2023-04-13T18:18:26.986Z,7.28
2023-04-13T18:23:28.533Z,8.25
2023-04-13T18:28:30.011Z,6.68
2023-04-13T18:33:31.679Z,5.03
2023-04-13T18:38:33.428Z,6.75
2023-04-13T18:43:34.802Z,4.82
2023-04-13T18:48:39.236Z,7.95
2023-04-13T18:53:40.571Z,11.85
2023-04-13T18:58:42.492Z,10.27
2023-04-13T19:03:44.571Z,6.80
2023-04-13T19:08:49.537Z,10.70
2023-04-13T19:13:50.849Z,10.30
2023-04-13T19:18:52.348Z,7.47
2023-04-13T19:23:54.376Z,18.30
2023-04-13T19:28:56.005Z,8.40
2023-04-13T19:33:57.994Z,9.90
2023-04-13T19:39:00.130Z,11.55
2023-04-13T19:44:03.271Z,13.77
2023-04-13T19:49:04.769Z,10.27
2023-04-13T19:54:09.116Z,7.55
2023-04-13T19:59:10.639Z,9.80
2023-04-13T20:04:12.145Z,10.70
2023-04-13T20:09:14.526Z,7.47
2023-04-13T20:14:15.957Z,6.35
2023-04-13T20:19:18.416Z,6.85
2023-04-13T20:24:19.960Z,7.32
2023-04-13T20:29:21.444Z,9.00
2023-04-13T20:34:22.807Z,6.03
2023-04-13T20:39:24.298Z,8.25
2023-04-13T20:44:25.889Z,7.78
2023-04-13T20:49:27.300Z,4.70
2023-04-13T20:54:28.553Z,4.80
2023-04-13T20:59:29.824Z,5.35
2023-04-13T21:04:31.896Z,4.97
2023-04-13T21:09:33.268Z,4.30
2023-04-13T21:14:34.666Z,5.72
2023-04-13T21:19:37.792Z,4.50
2023-04-13T21:24:39.456Z,6.38
2023-04-13T21:29:40.875Z,5.22
2023-04-13T21:34:45.052Z,5.13
2023-04-13T21:39:46.370Z,3.42
2023-04-13T21:44:47.685Z,4.68
2023-04-13T21:49:48.986Z,7.15
2023-04-13T21:54:51.927Z,5.38
2023-04-13T21:59:53.684Z,3.45
2023-04-13T22:04:55.159Z,4.50
2023-04-13T22:09:56.570Z,4.03
2023-04-13T22:14:58.004Z,4.82
2023-04-13T22:19:59.316Z,6.07
2023-04-13T22:25:00.754Z,4.53
2023-04-13T22:30:02.221Z,3.63
2023-04-13T22:35:06.452Z,4.28
2023-04-13T22:40:08.096Z,6.28
2023-04-13T22:45:09.546Z,6.45
2023-04-13T22:50:11.170Z,6.25
2023-04-13T22:55:12.461Z,4.95
2023-04-13T23:00:13.925Z,4.22
2023-04-13T23:05:15.270Z,6.55
2023-04-13T23:10:17.190Z,8.52
2023-04-13T23:15:18.627Z,3.53
2023-04-13T23:20:19.960Z,9.32
2023-04-13T23:25:21.215Z,5.80
2023-04-13T23:30:22.587Z,6.60
2023-04-13T23:35:24.076Z,5.65
2023-04-13T23:40:25.410Z,7.70
2023-04-13T23:45:26.770Z,8.07
2023-04-13T23:50:28.051Z,6.60
2023-04-13T23:55:29.486Z,7.55
